Homeworth, Ohio
Current Conditions -  °F | °C
As of 12:51 AM on Monday 20 Oct 2014 (Local Time) from KCAK Reporting Station
Overcast Overcast  
Wind Chill: 41°   Ceiling: 12000
Heat Index: 45°   Visibility: 10mi
Dew Point: 35°   Wind: 7mph
Humidity: 68%   Direction: 220°SW
Pressure: 30.03"   Gusts: NA
Location:  40.84°N, 81.07°W
Report Text: KCAK 200451Z 22006KT 10SM OVC120 07/02 A3003 RMK AO2 SLP174 T00720017 401220044
Loading
Personal Weather Stations






























Interactive Weather Map New forecast layout! Learn more

10-Day Weather Forecast

Advertisements
Track Severe Weather on mobile